Glenmont, Ohio
Current Conditions -  °F | °C
As of 7:16 AM on Sunday 25 Jan 2015 (Local Time) from K4I3 Reporting Station
Haze Haze  
Wind Chill: 32°   Ceiling: Unl
Heat Index: 32°   Visibility: 5mi
Dew Point: 30°   Wind: 0mph
Humidity: 93%   Direction: NA
Pressure: 29.74"   Gusts: NA
Location:  40.52°N, 82.1°W
Report Text: K4I3 251216Z AUTO 00000KT 5SM BR CLR 00/M01 A2974 RMK AO2
Loading
Personal Weather Stations






























Interactive Weather Map New forecast layout! Learn more

10-Day Weather Forecast

Advertisements
Track Severe Weather on mobile